sensor_id;sensor_type;location;lat;lon;timestamp;P1;durP1;ratioP1;P2;durP2;ratioP2
20639;SDS011;10479;53.524;9.846;2023-02-28T00:01:38;9.23;;;3.65;;
20639;SDS011;10479;53.524;9.846;2023-02-28T00:04:04;11.63;;;3.58;;
20639;SDS011;10479;53.524;9.846;2023-02-28T00:06:30;13.18;;;3.97;;
20639;SDS011;10479;53.524;9.846;2023-02-28T00:08:55;10.18;;;3.75;;
20639;SDS011;10479;53.524;9.846;2023-02-28T00:11:21;11.35;;;3.47;;
20639;SDS011;10479;53.524;9.846;2023-02-28T00:13:46;9.18;;;3.90;;
20639;SDS011;10479;53.524;9.846;2023-02-28T00:16:18;8.77;;;3.47;;
20639;SDS011;10479;53.524;9.846;2023-02-28T00:18:45;10.20;;;4.18;;
20639;SDS011;10479;53.524;9.846;2023-02-28T00:21:12;9.88;;;3.65;;
20639;SDS011;10479;53.524;9.846;2023-02-28T00:23:38;10.07;;;3.70;;
20639;SDS011;10479;53.524;9.846;2023-02-28T00:26:04;10.30;;;3.72;;
20639;SDS011;10479;53.524;9.846;2023-02-28T00:28:29;11.13;;;3.88;;
20639;SDS011;10479;53.524;9.846;2023-02-28T00:30:55;10.60;;;4.20;;
20639;SDS011;10479;53.524;9.846;2023-02-28T00:33:22;9.15;;;3.30;;
20639;SDS011;10479;53.524;9.846;2023-02-28T00:35:47;11.73;;;3.20;;
20639;SDS011;10479;53.524;9.846;2023-02-28T00:38:14;9.63;;;3.20;;
20639;SDS011;10479;53.524;9.846;2023-02-28T00:40:39;10.20;;;3.40;;
20639;SDS011;10479;53.524;9.846;2023-02-28T00:43:05;9.95;;;3.78;;
20639;SDS011;10479;53.524;9.846;2023-02-28T00:45:30;9.35;;;3.17;;
20639;SDS011;10479;53.524;9.846;2023-02-28T00:47:56;8.32;;;3.00;;
20639;SDS011;10479;53.524;9.846;2023-02-28T00:50:21;8.63;;;2.63;;
20639;SDS011;10479;53.524;9.846;2023-02-28T00:52:47;5.85;;;2.55;;
20639;SDS011;10479;53.524;9.846;2023-02-28T00:55:12;8.00;;;2.58;;
20639;SDS011;10479;53.524;9.846;2023-02-28T00:57:38;7.90;;;2.22;;
20639;SDS011;10479;53.524;9.846;2023-02-28T01:00:04;8.38;;;2.55;;
20639;SDS011;10479;53.524;9.846;2023-02-28T01:02:30;8.50;;;2.70;;
20639;SDS011;10479;53.524;9.846;2023-02-28T01:04:55;9.25;;;2.65;;
20639;SDS011;10479;53.524;9.846;2023-02-28T01:07:22;8.32;;;1.92;;
20639;SDS011;10479;53.524;9.846;2023-02-28T01:09:47;7.65;;;2.00;;
20639;SDS011;10479;53.524;9.846;2023-02-28T01:12:13;8.75;;;2.00;;
20639;SDS011;10479;53.524;9.846;2023-02-28T01:14:38;8.70;;;2.63;;
20639;SDS011;10479;53.524;9.846;2023-02-28T01:17:04;9.30;;;3.25;;
20639;SDS011;10479;53.524;9.846;2023-02-28T01:19:29;9.32;;;3.63;;
20639;SDS011;10479;53.524;9.846;2023-02-28T01:21:55;9.57;;;3.85;;
20639;SDS011;10479;53.524;9.846;2023-02-28T01:24:20;7.88;;;3.15;;
20639;SDS011;10479;53.524;9.846;2023-02-28T01:26:46;9.90;;;3.92;;
20639;SDS011;10479;53.524;9.846;2023-02-28T01:29:11;8.77;;;3.55;;
20639;SDS011;10479;53.524;9.846;2023-02-28T01:31:36;8.88;;;3.05;;
20639;SDS011;10479;53.524;9.846;2023-02-28T01:34:02;10.45;;;3.20;;
20639;SDS011;10479;53.524;9.846;2023-02-28T01:36:28;14.73;;;3.28;;
20639;SDS011;10479;53.524;9.846;2023-02-28T01:38:54;9.88;;;3.35;;
20639;SDS011;10479;53.524;9.846;2023-02-28T01:41:23;8.60;;;3.00;;
20639;SDS011;10479;53.524;9.846;2023-02-28T01:46:18;9.93;;;2.50;;
20639;SDS011;10479;53.524;9.846;2023-02-28T01:48:45;10.35;;;2.70;;
20639;SDS011;10479;53.524;9.846;2023-02-28T01:51:17;8.23;;;3.03;;
20639;SDS011;10479;53.524;9.846;2023-02-28T01:53:47;8.77;;;3.25;;
20639;SDS011;10479;53.524;9.846;2023-02-28T01:56:17;11.30;;;3.03;;
20639;SDS011;10479;53.524;9.846;2023-02-28T01:58:52;10.05;;;3.25;;
20639;SDS011;10479;53.524;9.846;2023-02-28T02:01:19;8.38;;;3.20;;
20639;SDS011;10479;53.524;9.846;2023-02-28T02:03:49;10.10;;;3.45;;
20639;SDS011;10479;53.524;9.846;2023-02-28T02:06:20;13.52;;;3.08;;
20639;SDS011;10479;53.524;9.846;2023-02-28T02:08:58;10.07;;;3.13;;
20639;SDS011;10479;53.524;9.846;2023-02-28T02:11:23;8.57;;;3.03;;
20639;SDS011;10479;53.524;9.846;2023-02-28T02:22:00;10.98;;;2.78;;
20639;SDS011;10479;53.524;9.846;2023-02-28T02:41:04;7.93;;;2.78;;
20639;SDS011;10479;53.524;9.846;2023-02-28T02:46:37;6.95;;;2.90;;
20639;SDS011;10479;53.524;9.846;2023-02-28T02:49:08;7.72;;;2.65;;
20639;SDS011;10479;53.524;9.846;2023-02-28T02:51:35;9.45;;;2.88;;
20639;SDS011;10479;53.524;9.846;2023-02-28T02:54:03;7.88;;;2.70;;
20639;SDS011;10479;53.524;9.846;2023-02-28T02:56:31;11.10;;;3.00;;
20639;SDS011;10479;53.524;9.846;2023-02-28T02:58:59;8.93;;;3.10;;
20639;SDS011;10479;53.524;9.846;2023-02-28T03:01:27;7.50;;;2.97;;
20639;SDS011;10479;53.524;9.846;2023-02-28T03:03:57;9.60;;;3.05;;
20639;SDS011;10479;53.524;9.846;2023-02-28T03:06:25;9.07;;;2.97;;
20639;SDS011;10479;53.524;9.846;2023-02-28T03:08:50;9.20;;;3.15;;
20639;SDS011;10479;53.524;9.846;2023-02-28T03:11:16;8.77;;;3.13;;
20639;SDS011;10479;53.524;9.846;2023-02-28T03:22:32;11.88;;;3.22;;
20639;SDS011;10479;53.524;9.846;2023-02-28T03:27:10;13.50;;;3.08;;
20639;SDS011;10479;53.524;9.846;2023-02-28T03:29:43;9.05;;;3.20;;
20639;SDS011;10479;53.524;9.846;2023-02-28T03:32:17;8.68;;;3.20;;
20639;SDS011;10479;53.524;9.846;2023-02-28T03:35:10;11.75;;;3.22;;
20639;SDS011;10479;53.524;9.846;2023-02-28T03:37:40;10.23;;;3.50;;
20639;SDS011;10479;53.524;9.846;2023-02-28T03:40:11;7.28;;;3.13;;
20639;SDS011;10479;53.524;9.846;2023-02-28T03:42:39;11.40;;;3.67;;
20639;SDS011;10479;53.524;9.846;2023-02-28T03:45:09;14.85;;;3.78;;
20639;SDS011;10479;53.524;9.846;2023-02-28T03:50:41;8.68;;;3.70;;
20639;SDS011;10479;53.524;9.846;2023-02-28T03:55:55;14.00;;;3.85;;
20639;SDS011;10479;53.524;9.846;2023-02-28T03:58:35;7.95;;;3.50;;
20639;SDS011;10479;53.524;9.846;2023-02-28T04:01:09;10.55;;;3.88;;
20639;SDS011;10479;53.524;9.846;2023-02-28T04:03:38;13.93;;;3.50;;
20639;SDS011;10479;53.524;9.846;2023-02-28T04:06:04;11.65;;;3.50;;
20639;SDS011;10479;53.524;9.846;2023-02-28T04:08:31;9.75;;;3.42;;
20639;SDS011;10479;53.524;9.846;2023-02-28T04:11:07;8.52;;;3.30;;
20639;SDS011;10479;53.524;9.846;2023-02-28T04:13:39;8.50;;;3.65;;
20639;SDS011;10479;53.524;9.846;2023-02-28T04:16:08;9.30;;;3.55;;
20639;SDS011;10479;53.524;9.846;2023-02-28T04:18:40;9.90;;;4.30;;
20639;SDS011;10479;53.524;9.846;2023-02-28T04:21:08;9.75;;;4.38;;
20639;SDS011;10479;53.524;9.846;2023-02-28T04:23:33;11.88;;;4.57;;
20639;SDS011;10479;53.524;9.846;2023-02-28T04:25:59;12.65;;;4.43;;
20639;SDS011;10479;53.524;9.846;2023-02-28T04:28:24;13.43;;;4.82;;
20639;SDS011;10479;53.524;9.846;2023-02-28T04:30:59;13.05;;;4.53;;
20639;SDS011;10479;53.524;9.846;2023-02-28T04:33:27;10.25;;;4.53;;
20639;SDS011;10479;53.524;9.846;2023-02-28T04:36:05;15.65;;;5.45;;
20639;SDS011;10479;53.524;9.846;2023-02-28T04:38:34;9.48;;;4.13;;
20639;SDS011;10479;53.524;9.846;2023-02-28T04:41:02;17.50;;;5.32;;
20639;SDS011;10479;53.524;9.846;2023-02-28T04:43:29;16.73;;;5.97;;
20639;SDS011;10479;53.524;9.846;2023-02-28T04:45:55;14.52;;;5.28;;
20639;SDS011;10479;53.524;9.846;2023-02-28T04:48:24;12.98;;;5.20;;
20639;SDS011;10479;53.524;9.846;2023-02-28T04:50:51;15.35;;;5.15;;
20639;SDS011;10479;53.524;9.846;2023-02-28T04:53:17;12.32;;;5.25;;
20639;SDS011;10479;53.524;9.846;2023-02-28T04:55:42;12.43;;;4.85;;
20639;SDS011;10479;53.524;9.846;2023-02-28T04:58:08;15.13;;;5.35;;
20639;SDS011;10479;53.524;9.846;2023-02-28T05:00:34;12.15;;;5.72;;
20639;SDS011;10479;53.524;9.846;2023-02-28T05:02:59;15.45;;;5.22;;
20639;SDS011;10479;53.524;9.846;2023-02-28T05:05:25;9.30;;;4.53;;
20639;SDS011;10479;53.524;9.846;2023-02-28T05:07:50;9.15;;;4.30;;
20639;SDS011;10479;53.524;9.846;2023-02-28T05:10:15;13.35;;;4.55;;
20639;SDS011;10479;53.524;9.846;2023-02-28T05:12:41;14.68;;;4.60;;
20639;SDS011;10479;53.524;9.846;2023-02-28T05:15:07;14.68;;;5.13;;
20639;SDS011;10479;53.524;9.846;2023-02-28T05:17:36;14.73;;;4.55;;
20639;SDS011;10479;53.524;9.846;2023-02-28T05:20:01;13.10;;;4.55;;
20639;SDS011;10479;53.524;9.846;2023-02-28T05:22:28;11.10;;;4.43;;
20639;SDS011;10479;53.524;9.846;2023-02-28T05:24:54;15.45;;;4.93;;
20639;SDS011;10479;53.524;9.846;2023-02-28T05:27:19;14.63;;;4.40;;
20639;SDS011;10479;53.524;9.846;2023-02-28T05:29:45;19.25;;;5.13;;
20639;SDS011;10479;53.524;9.846;2023-02-28T05:32:11;14.85;;;4.80;;
20639;SDS011;10479;53.524;9.846;2023-02-28T05:34:37;11.73;;;4.70;;
20639;SDS011;10479;53.524;9.846;2023-02-28T05:37:03;14.25;;;4.85;;
20639;SDS011;10479;53.524;9.846;2023-02-28T05:39:29;13.00;;;4.45;;
20639;SDS011;10479;53.524;9.846;2023-02-28T05:41:54;11.02;;;4.38;;
20639;SDS011;10479;53.524;9.846;2023-02-28T05:44:19;13.73;;;4.57;;
20639;SDS011;10479;53.524;9.846;2023-02-28T05:46:45;13.57;;;5.20;;
20639;SDS011;10479;53.524;9.846;2023-02-28T05:49:10;14.77;;;4.68;;
20639;SDS011;10479;53.524;9.846;2023-02-28T05:51:36;11.02;;;4.32;;
20639;SDS011;10479;53.524;9.846;2023-02-28T05:54:04;12.15;;;4.10;;
20639;SDS011;10479;53.524;9.846;2023-02-28T05:56:31;12.57;;;5.07;;
20639;SDS011;10479;53.524;9.846;2023-02-28T05:58:56;11.15;;;5.18;;
20639;SDS011;10479;53.524;9.846;2023-02-28T06:03:57;12.82;;;4.40;;
20639;SDS011;10479;53.524;9.846;2023-02-28T06:06:26;13.45;;;4.70;;
20639;SDS011;10479;53.524;9.846;2023-02-28T06:08:52;11.10;;;4.68;;
20639;SDS011;10479;53.524;9.846;2023-02-28T06:11:17;17.15;;;5.13;;
20639;SDS011;10479;53.524;9.846;2023-02-28T06:13:44;15.30;;;4.80;;
20639;SDS011;10479;53.524;9.846;2023-02-28T06:16:10;14.10;;;4.28;;
20639;SDS011;10479;53.524;9.846;2023-02-28T06:18:36;17.40;;;4.55;;
20639;SDS011;10479;53.524;9.846;2023-02-28T06:21:02;16.45;;;5.32;;
20639;SDS011;10479;53.524;9.846;2023-02-28T06:23:28;12.32;;;4.60;;
20639;SDS011;10479;53.524;9.846;2023-02-28T06:25:54;14.13;;;4.78;;
20639;SDS011;10479;53.524;9.846;2023-02-28T06:28:23;15.48;;;4.63;;
20639;SDS011;10479;53.524;9.846;2023-02-28T06:30:49;17.80;;;4.88;;
20639;SDS011;10479;53.524;9.846;2023-02-28T06:33:14;14.18;;;4.57;;
20639;SDS011;10479;53.524;9.846;2023-02-28T06:35:42;12.43;;;4.75;;
20639;SDS011;10479;53.524;9.846;2023-02-28T06:38:09;13.57;;;4.20;;
20639;SDS011;10479;53.524;9.846;2023-02-28T06:40:35;14.23;;;5.43;;
20639;SDS011;10479;53.524;9.846;2023-02-28T06:43:01;12.02;;;5.18;;
20639;SDS011;10479;53.524;9.846;2023-02-28T06:45:27;19.00;;;4.97;;
20639;SDS011;10479;53.524;9.846;2023-02-28T06:47:52;12.95;;;4.85;;
20639;SDS011;10479;53.524;9.846;2023-02-28T06:50:18;16.25;;;4.70;;
20639;SDS011;10479;53.524;9.846;2023-02-28T06:52:44;13.98;;;5.30;;
20639;SDS011;10479;53.524;9.846;2023-02-28T06:55:10;8.77;;;4.10;;
20639;SDS011;10479;53.524;9.846;2023-02-28T06:57:35;10.15;;;4.78;;
20639;SDS011;10479;53.524;9.846;2023-02-28T07:00:03;10.85;;;4.80;;
20639;SDS011;10479;53.524;9.846;2023-02-28T07:02:32;16.55;;;5.03;;
20639;SDS011;10479;53.524;9.846;2023-02-28T07:04:58;14.82;;;4.88;;
20639;SDS011;10479;53.524;9.846;2023-02-28T07:07:24;11.77;;;4.53;;
20639;SDS011;10479;53.524;9.846;2023-02-28T07:09:49;11.30;;;4.45;;
20639;SDS011;10479;53.524;9.846;2023-02-28T07:12:15;13.63;;;5.30;;
20639;SDS011;10479;53.524;9.846;2023-02-28T07:14:40;11.95;;;4.82;;
20639;SDS011;10479;53.524;9.846;2023-02-28T07:17:09;13.68;;;5.40;;
20639;SDS011;10479;53.524;9.846;2023-02-28T07:19:37;17.92;;;5.90;;
20639;SDS011;10479;53.524;9.846;2023-02-28T07:22:03;15.80;;;5.57;;
20639;SDS011;10479;53.524;9.846;2023-02-28T07:24:29;15.52;;;5.47;;
20639;SDS011;10479;53.524;9.846;2023-02-28T07:26:55;18.38;;;6.43;;
20639;SDS011;10479;53.524;9.846;2023-02-28T07:29:20;18.58;;;6.00;;
20639;SDS011;10479;53.524;9.846;2023-02-28T07:31:46;18.50;;;5.78;;
20639;SDS011;10479;53.524;9.846;2023-02-28T07:34:11;15.82;;;6.32;;
20639;SDS011;10479;53.524;9.846;2023-02-28T07:36:37;18.38;;;5.72;;
20639;SDS011;10479;53.524;9.846;2023-02-28T07:39:03;19.23;;;6.05;;
20639;SDS011;10479;53.524;9.846;2023-02-28T07:41:29;19.95;;;6.43;;
20639;SDS011;10479;53.524;9.846;2023-02-28T07:43:58;18.83;;;6.03;;
20639;SDS011;10479;53.524;9.846;2023-02-28T07:46:25;14.95;;;6.28;;
20639;SDS011;10479;53.524;9.846;2023-02-28T07:48:51;15.43;;;5.95;;
20639;SDS011;10479;53.524;9.846;2023-02-28T07:51:18;13.13;;;5.90;;
20639;SDS011;10479;53.524;9.846;2023-02-28T07:53:44;21.20;;;6.72;;
20639;SDS011;10479;53.524;9.846;2023-02-28T07:56:10;16.20;;;6.43;;
20639;SDS011;10479;53.524;9.846;2023-02-28T07:58:37;14.38;;;5.03;;
20639;SDS011;10479;53.524;9.846;2023-02-28T08:01:09;15.57;;;5.25;;
20639;SDS011;10479;53.524;9.846;2023-02-28T08:03:39;9.68;;;4.32;;
20639;SDS011;10479;53.524;9.846;2023-02-28T08:06:06;13.82;;;4.47;;
20639;SDS011;10479;53.524;9.846;2023-02-28T08:08:33;9.93;;;3.92;;
20639;SDS011;10479;53.524;9.846;2023-02-28T08:11:00;12.18;;;3.75;;
20639;SDS011;10479;53.524;9.846;2023-02-28T08:13:27;8.60;;;3.53;;
20639;SDS011;10479;53.524;9.846;2023-02-28T08:15:55;8.50;;;3.40;;
20639;SDS011;10479;53.524;9.846;2023-02-28T08:18:21;7.65;;;2.90;;
20639;SDS011;10479;53.524;9.846;2023-02-28T08:20:48;8.80;;;2.80;;
20639;SDS011;10479;53.524;9.846;2023-02-28T08:23:14;10.35;;;2.60;;
20639;SDS011;10479;53.524;9.846;2023-02-28T08:25:40;8.07;;;2.60;;
20639;SDS011;10479;53.524;9.846;2023-02-28T08:28:05;6.35;;;2.10;;
20639;SDS011;10479;53.524;9.846;2023-02-28T08:30:31;7.40;;;2.50;;
20639;SDS011;10479;53.524;9.846;2023-02-28T08:32:57;8.05;;;2.80;;
20639;SDS011;10479;53.524;9.846;2023-02-28T08:35:23;8.90;;;3.03;;
20639;SDS011;10479;53.524;9.846;2023-02-28T08:37:49;7.35;;;3.42;;
20639;SDS011;10479;53.524;9.846;2023-02-28T08:40:16;8.70;;;3.20;;
20639;SDS011;10479;53.524;9.846;2023-02-28T08:42:45;10.43;;;3.55;;
20639;SDS011;10479;53.524;9.846;2023-02-28T08:45:11;7.30;;;3.30;;
20639;SDS011;10479;53.524;9.846;2023-02-28T08:47:37;7.78;;;2.65;;
20639;SDS011;10479;53.524;9.846;2023-02-28T08:50:03;7.85;;;3.00;;
20639;SDS011;10479;53.524;9.846;2023-02-28T08:52:30;9.02;;;3.35;;
20639;SDS011;10479;53.524;9.846;2023-02-28T08:54:56;13.55;;;3.30;;
20639;SDS011;10479;53.524;9.846;2023-02-28T08:57:21;15.93;;;5.72;;
20639;SDS011;10479;53.524;9.846;2023-02-28T08:59:47;15.18;;;5.05;;
20639;SDS011;10479;53.524;9.846;2023-02-28T09:02:13;12.18;;;4.00;;
20639;SDS011;10479;53.524;9.846;2023-02-28T09:04:39;11.07;;;4.13;;
20639;SDS011;10479;53.524;9.846;2023-02-28T09:07:05;6.90;;;2.28;;
20639;SDS011;10479;53.524;9.846;2023-02-28T09:09:31;4.38;;;1.60;;
20639;SDS011;10479;53.524;9.846;2023-02-28T09:11:58;5.45;;;1.80;;
20639;SDS011;10479;53.524;9.846;2023-02-28T09:14:24;6.13;;;1.83;;
20639;SDS011;10479;53.524;9.846;2023-02-28T09:16:50;5.30;;;1.92;;
20639;SDS011;10479;53.524;9.846;2023-02-28T09:19:15;5.72;;;1.80;;
20639;SDS011;10479;53.524;9.846;2023-02-28T09:21:41;4.57;;;1.85;;
20639;SDS011;10479;53.524;9.846;2023-02-28T09:24:07;3.42;;;1.20;;
20639;SDS011;10479;53.524;9.846;2023-02-28T09:26:33;5.97;;;1.55;;
20639;SDS011;10479;53.524;9.846;2023-02-28T09:28:59;3.03;;;1.10;;
20639;SDS011;10479;53.524;9.846;2023-02-28T09:31:26;4.63;;;1.35;;
20639;SDS011;10479;53.524;9.846;2023-02-28T09:33:53;5.70;;;1.67;;
20639;SDS011;10479;53.524;9.846;2023-02-28T09:36:21;3.40;;;1.20;;
20639;SDS011;10479;53.524;9.846;2023-02-28T09:38:47;3.75;;;1.45;;
20639;SDS011;10479;53.524;9.846;2023-02-28T09:41:17;8.65;;;1.30;;
20639;SDS011;10479;53.524;9.846;2023-02-28T09:43:47;3.92;;;1.40;;
20639;SDS011;10479;53.524;9.846;2023-02-28T09:48:53;4.13;;;0.85;;
20639;SDS011;10479;53.524;9.846;2023-02-28T09:51:30;2.97;;;1.13;;
20639;SDS011;10479;53.524;9.846;2023-02-28T09:53:59;4.10;;;1.30;;
20639;SDS011;10479;53.524;9.846;2023-02-28T09:56:33;3.08;;;1.20;;
20639;SDS011;10479;53.524;9.846;2023-02-28T10:04:54;3.28;;;1.00;;
20639;SDS011;10479;53.524;9.846;2023-02-28T10:12:51;4.72;;;0.88;;
20639;SDS011;10479;53.524;9.846;2023-02-28T10:15:18;3.00;;;0.82;;
20639;SDS011;10479;53.524;9.846;2023-02-28T10:17:49;3.25;;;0.70;;
20639;SDS011;10479;53.524;9.846;2023-02-28T10:20:19;4.80;;;0.80;;
20639;SDS011;10479;53.524;9.846;2023-02-28T10:25:32;3.08;;;0.65;;
20639;SDS011;10479;53.524;9.846;2023-02-28T10:28:32;3.22;;;0.90;;
20639;SDS011;10479;53.524;9.846;2023-02-28T10:30:53;4.03;;;1.10;;
20639;SDS011;10479;53.524;9.846;2023-02-28T10:33:23;3.53;;;1.13;;
20639;SDS011;10479;53.524;9.846;2023-02-28T10:38:19;4.28;;;1.23;;
20639;SDS011;10479;53.524;9.846;2023-02-28T10:40:50;4.10;;;1.00;;
20639;SDS011;10479;53.524;9.846;2023-02-28T10:43:18;5.93;;;1.50;;
20639;SDS011;10479;53.524;9.846;2023-02-28T10:48:30;4.85;;;1.10;;
20639;SDS011;10479;53.524;9.846;2023-02-28T10:51:16;3.70;;;1.40;;
20639;SDS011;10479;53.524;9.846;2023-02-28T10:53:48;5.35;;;1.60;;
20639;SDS011;10479;53.524;9.846;2023-02-28T10:56:16;4.65;;;1.38;;
20639;SDS011;10479;53.524;9.846;2023-02-28T11:01:37;2.20;;;0.90;;
20639;SDS011;10479;53.524;9.846;2023-02-28T11:04:18;2.55;;;0.88;;
20639;SDS011;10479;53.524;9.846;2023-02-28T11:06:57;4.17;;;1.10;;
20639;SDS011;10479;53.524;9.846;2023-02-28T11:11:54;4.55;;;1.13;;
20639;SDS011;10479;53.524;9.846;2023-02-28T11:16:46;4.53;;;1.20;;
20639;SDS011;10479;53.524;9.846;2023-02-28T11:19:17;4.28;;;1.40;;
20639;SDS011;10479;53.524;9.846;2023-02-28T11:21:53;5.70;;;1.10;;
20639;SDS011;10479;53.524;9.846;2023-02-28T11:24:26;2.42;;;1.00;;
20639;SDS011;10479;53.524;9.846;2023-02-28T11:26:53;7.25;;;1.20;;
20639;SDS011;10479;53.524;9.846;2023-02-28T11:29:30;3.60;;;0.90;;
20639;SDS011;10479;53.524;9.846;2023-02-28T11:32:19;2.65;;;1.20;;
20639;SDS011;10479;53.524;9.846;2023-02-28T11:37:34;4.47;;;1.33;;
20639;SDS011;10479;53.524;9.846;2023-02-28T11:40:00;3.35;;;1.20;;
20639;SDS011;10479;53.524;9.846;2023-02-28T11:56:14;4.72;;;1.25;;
20639;SDS011;10479;53.524;9.846;2023-02-28T12:01:27;4.68;;;1.17;;
20639;SDS011;10479;53.524;9.846;2023-02-28T12:12:14;6.43;;;1.60;;
20639;SDS011;10479;53.524;9.846;2023-02-28T12:28:28;3.83;;;1.10;;
20639;SDS011;10479;53.524;9.846;2023-02-28T12:31:01;3.80;;;1.27;;
20639;SDS011;10479;53.524;9.846;2023-02-28T12:33:33;4.20;;;1.25;;
20639;SDS011;10479;53.524;9.846;2023-02-28T12:36:04;4.25;;;1.05;;
20639;SDS011;10479;53.524;9.846;2023-02-28T12:38:46;4.95;;;1.45;;
20639;SDS011;10479;53.524;9.846;2023-02-28T12:44:21;3.75;;;1.42;;
20639;SDS011;10479;53.524;9.846;2023-02-28T12:46:46;4.30;;;1.45;;
20639;SDS011;10479;53.524;9.846;2023-02-28T12:49:23;3.97;;;1.42;;
20639;SDS011;10479;53.524;9.846;2023-02-28T12:51:56;8.07;;;1.63;;
20639;SDS011;10479;53.524;9.846;2023-02-28T12:54:26;6.85;;;1.70;;
20639;SDS011;10479;53.524;9.846;2023-02-28T13:11:25;6.13;;;1.48;;
20639;SDS011;10479;53.524;9.846;2023-02-28T13:14:29;3.40;;;1.33;;
20639;SDS011;10479;53.524;9.846;2023-02-28T13:17:09;7.38;;;1.83;;
20639;SDS011;10479;53.524;9.846;2023-02-28T13:19:45;6.60;;;1.58;;
20639;SDS011;10479;53.524;9.846;2023-02-28T13:27:51;7.80;;;1.67;;
20639;SDS011;10479;53.524;9.846;2023-02-28T13:33:31;6.32;;;1.75;;
20639;SDS011;10479;53.524;9.846;2023-02-28T13:36:08;6.70;;;1.50;;
20639;SDS011;10479;53.524;9.846;2023-02-28T13:38:42;5.53;;;2.00;;
20639;SDS011;10479;53.524;9.846;2023-02-28T13:46:30;5.28;;;1.50;;
20639;SDS011;10479;53.524;9.846;2023-02-28T13:48:56;3.47;;;1.50;;
20639;SDS011;10479;53.524;9.846;2023-02-28T13:54:20;7.40;;;2.00;;
20639;SDS011;10479;53.524;9.846;2023-02-28T13:56:53;8.52;;;1.98;;
20639;SDS011;10479;53.524;9.846;2023-02-28T14:05:19;4.38;;;1.92;;
20639;SDS011;10479;53.524;9.846;2023-02-28T14:07:54;5.43;;;1.90;;
20639;SDS011;10479;53.524;9.846;2023-02-28T14:12:53;7.50;;;1.80;;
20639;SDS011;10479;53.524;9.846;2023-02-28T14:15:36;9.95;;;2.33;;
20639;SDS011;10479;53.524;9.846;2023-02-28T14:18:05;5.28;;;1.58;;
20639;SDS011;10479;53.524;9.846;2023-02-28T14:20:39;6.55;;;1.55;;
20639;SDS011;10479;53.524;9.846;2023-02-28T14:25:36;6.50;;;1.80;;
20639;SDS011;10479;53.524;9.846;2023-02-28T14:28:20;7.45;;;2.10;;
20639;SDS011;10479;53.524;9.846;2023-02-28T14:36:26;6.80;;;2.22;;
20639;SDS011;10479;53.524;9.846;2023-02-28T14:39:14;7.93;;;1.60;;
20639;SDS011;10479;53.524;9.846;2023-02-28T14:41:40;5.03;;;1.80;;
20639;SDS011;10479;53.524;9.846;2023-02-28T14:46:46;10.98;;;2.17;;
20639;SDS011;10479;53.524;9.846;2023-02-28T14:51:44;8.15;;;1.80;;
20639;SDS011;10479;53.524;9.846;2023-02-28T14:54:13;5.50;;;1.92;;
20639;SDS011;10479;53.524;9.846;2023-02-28T14:56:41;5.60;;;1.95;;
20639;SDS011;10479;53.524;9.846;2023-02-28T14:59:21;7.47;;;1.58;;
20639;SDS011;10479;53.524;9.846;2023-02-28T15:02:18;7.63;;;1.75;;
20639;SDS011;10479;53.524;9.846;2023-02-28T15:04:55;8.98;;;2.05;;
20639;SDS011;10479;53.524;9.846;2023-02-28T15:07:21;6.25;;;2.00;;
20639;SDS011;10479;53.524;9.846;2023-02-28T15:15:39;7.55;;;1.90;;
20639;SDS011;10479;53.524;9.846;2023-02-28T15:18:13;4.65;;;1.65;;
20639;SDS011;10479;53.524;9.846;2023-02-28T15:20:51;5.75;;;2.33;;
20639;SDS011;10479;53.524;9.846;2023-02-28T15:23:16;7.47;;;1.85;;
20639;SDS011;10479;53.524;9.846;2023-02-28T15:25:42;6.20;;;1.55;;
20639;SDS011;10479;53.524;9.846;2023-02-28T15:28:10;5.60;;;1.70;;
20639;SDS011;10479;53.524;9.846;2023-02-28T15:30:40;8.13;;;1.77;;
20639;SDS011;10479;53.524;9.846;2023-02-28T15:33:20;5.55;;;1.85;;
20639;SDS011;10479;53.524;9.846;2023-02-28T15:35:47;4.80;;;1.77;;
20639;SDS011;10479;53.524;9.846;2023-02-28T15:38:26;5.20;;;1.77;;
20639;SDS011;10479;53.524;9.846;2023-02-28T15:40:53;6.57;;;2.15;;
20639;SDS011;10479;53.524;9.846;2023-02-28T15:43:24;7.35;;;1.65;;
20639;SDS011;10479;53.524;9.846;2023-02-28T15:51:21;6.80;;;2.00;;
20639;SDS011;10479;53.524;9.846;2023-02-28T15:53:59;11.95;;;2.00;;
20639;SDS011;10479;53.524;9.846;2023-02-28T15:58:56;7.97;;;2.05;;
20639;SDS011;10479;53.524;9.846;2023-02-28T16:01:27;8.15;;;2.10;;
20639;SDS011;10479;53.524;9.846;2023-02-28T16:04:01;9.48;;;1.98;;
20639;SDS011;10479;53.524;9.846;2023-02-28T16:06:36;5.55;;;1.80;;
20639;SDS011;10479;53.524;9.846;2023-02-28T16:09:03;5.80;;;1.85;;
20639;SDS011;10479;53.524;9.846;2023-02-28T16:11:33;6.05;;;1.55;;
20639;SDS011;10479;53.524;9.846;2023-02-28T16:13:59;9.05;;;1.83;;
20639;SDS011;10479;53.524;9.846;2023-02-28T16:16:25;9.45;;;1.67;;
20639;SDS011;10479;53.524;9.846;2023-02-28T16:18:51;7.65;;;2.00;;
20639;SDS011;10479;53.524;9.846;2023-02-28T16:21:17;10.85;;;2.25;;
20639;SDS011;10479;53.524;9.846;2023-02-28T16:23:42;11.23;;;1.98;;
20639;SDS011;10479;53.524;9.846;2023-02-28T16:26:08;8.10;;;2.17;;
20639;SDS011;10479;53.524;9.846;2023-02-28T16:28:41;6.05;;;1.90;;
20639;SDS011;10479;53.524;9.846;2023-02-28T16:31:06;14.15;;;1.90;;
20639;SDS011;10479;53.524;9.846;2023-02-28T16:33:32;10.07;;;2.00;;
20639;SDS011;10479;53.524;9.846;2023-02-28T16:35:58;5.32;;;1.88;;
20639;SDS011;10479;53.524;9.846;2023-02-28T16:38:24;7.53;;;1.65;;
20639;SDS011;10479;53.524;9.846;2023-02-28T16:40:50;15.25;;;2.58;;
20639;SDS011;10479;53.524;9.846;2023-02-28T16:43:17;11.98;;;2.42;;
20639;SDS011;10479;53.524;9.846;2023-02-28T16:45:46;5.45;;;1.63;;
20639;SDS011;10479;53.524;9.846;2023-02-28T16:48:12;6.63;;;1.70;;
20639;SDS011;10479;53.524;9.846;2023-02-28T16:50:40;9.10;;;2.13;;
20639;SDS011;10479;53.524;9.846;2023-02-28T16:53:07;7.20;;;1.75;;
20639;SDS011;10479;53.524;9.846;2023-02-28T16:55:32;7.03;;;1.70;;
20639;SDS011;10479;53.524;9.846;2023-02-28T16:57:59;5.45;;;1.80;;
20639;SDS011;10479;53.524;9.846;2023-02-28T17:00:27;5.55;;;1.65;;
20639;SDS011;10479;53.524;9.846;2023-02-28T17:02:53;9.07;;;1.92;;
20639;SDS011;10479;53.524;9.846;2023-02-28T17:05:19;7.35;;;2.00;;
20639;SDS011;10479;53.524;9.846;2023-02-28T17:07:45;7.35;;;1.70;;
20639;SDS011;10479;53.524;9.846;2023-02-28T17:10:16;8.68;;;1.77;;
20639;SDS011;10479;53.524;9.846;2023-02-28T17:12:43;4.97;;;1.70;;
20639;SDS011;10479;53.524;9.846;2023-02-28T17:15:10;4.38;;;1.63;;
20639;SDS011;10479;53.524;9.846;2023-02-28T17:17:36;7.18;;;1.90;;
20639;SDS011;10479;53.524;9.846;2023-02-28T17:20:02;6.00;;;1.70;;
20639;SDS011;10479;53.524;9.846;2023-02-28T17:22:28;9.98;;;2.03;;
20639;SDS011;10479;53.524;9.846;2023-02-28T17:24:54;7.18;;;2.03;;
20639;SDS011;10479;53.524;9.846;2023-02-28T17:27:20;6.80;;;1.52;;
20639;SDS011;10479;53.524;9.846;2023-02-28T17:29:46;6.93;;;1.88;;
20639;SDS011;10479;53.524;9.846;2023-02-28T17:32:12;4.45;;;1.55;;
20639;SDS011;10479;53.524;9.846;2023-02-28T17:34:38;7.00;;;1.55;;
20639;SDS011;10479;53.524;9.846;2023-02-28T17:37:03;5.63;;;1.88;;
20639;SDS011;10479;53.524;9.846;2023-02-28T17:39:29;5.43;;;1.80;;
20639;SDS011;10479;53.524;9.846;2023-02-28T17:41:55;6.65;;;2.03;;
20639;SDS011;10479;53.524;9.846;2023-02-28T17:44:21;6.10;;;1.70;;
20639;SDS011;10479;53.524;9.846;2023-02-28T17:46:48;6.90;;;1.65;;
20639;SDS011;10479;53.524;9.846;2023-02-28T17:49:14;4.07;;;1.70;;
20639;SDS011;10479;53.524;9.846;2023-02-28T17:51:40;11.32;;;2.03;;
20639;SDS011;10479;53.524;9.846;2023-02-28T17:54:06;5.60;;;1.92;;
20639;SDS011;10479;53.524;9.846;2023-02-28T17:56:31;7.10;;;2.13;;
20639;SDS011;10479;53.524;9.846;2023-02-28T17:58:57;5.82;;;1.67;;
20639;SDS011;10479;53.524;9.846;2023-02-28T18:01:23;4.63;;;1.83;;